sensor_id;sensor_type;location;lat;lon;timestamp;P1;durP1;ratioP1;P2;durP2;ratioP2
22070;SDS011;11200;51.488;6.668;2024-03-25T00:01:20;10.20;;;4.82;;
22070;SDS011;11200;51.488;6.668;2024-03-25T00:03:46;8.77;;;4.18;;
22070;SDS011;11200;51.488;6.668;2024-03-25T00:06:12;10.82;;;5.47;;
22070;SDS011;11200;51.488;6.668;2024-03-25T00:08:38;12.98;;;6.65;;
22070;SDS011;11200;51.488;6.668;2024-03-25T00:11:04;8.57;;;4.55;;
22070;SDS011;11200;51.488;6.668;2024-03-25T00:13:30;12.95;;;5.32;;
22070;SDS011;11200;51.488;6.668;2024-03-25T00:15:56;14.27;;;6.70;;
22070;SDS011;11200;51.488;6.668;2024-03-25T00:18:22;15.50;;;8.02;;
22070;SDS011;11200;51.488;6.668;2024-03-25T00:20:48;11.93;;;6.28;;
22070;SDS011;11200;51.488;6.668;2024-03-25T00:23:14;10.43;;;5.45;;
22070;SDS011;11200;51.488;6.668;2024-03-25T00:25:40;12.13;;;5.32;;
22070;SDS011;11200;51.488;6.668;2024-03-25T00:28:06;12.68;;;6.32;;
22070;SDS011;11200;51.488;6.668;2024-03-25T00:30:32;10.13;;;5.35;;
22070;SDS011;11200;51.488;6.668;2024-03-25T00:32:59;10.73;;;5.25;;
22070;SDS011;11200;51.488;6.668;2024-03-25T00:35:25;8.52;;;4.60;;
22070;SDS011;11200;51.488;6.668;2024-03-25T00:37:51;10.50;;;5.05;;
22070;SDS011;11200;51.488;6.668;2024-03-25T00:40:17;10.55;;;4.78;;
22070;SDS011;11200;51.488;6.668;2024-03-25T00:42:43;10.13;;;4.53;;
22070;SDS011;11200;51.488;6.668;2024-03-25T00:45:09;8.75;;;4.20;;
22070;SDS011;11200;51.488;6.668;2024-03-25T00:47:35;8.38;;;4.35;;
22070;SDS011;11200;51.488;6.668;2024-03-25T00:50:01;7.15;;;3.83;;
22070;SDS011;11200;51.488;6.668;2024-03-25T00:52:27;10.52;;;4.30;;
22070;SDS011;11200;51.488;6.668;2024-03-25T00:54:53;10.50;;;4.30;;
22070;SDS011;11200;51.488;6.668;2024-03-25T00:57:19;10.82;;;4.50;;
22070;SDS011;11200;51.488;6.668;2024-03-25T00:59:45;9.23;;;3.80;;
22070;SDS011;11200;51.488;6.668;2024-03-25T01:02:11;6.95;;;3.55;;
22070;SDS011;11200;51.488;6.668;2024-03-25T01:04:36;9.00;;;3.65;;
22070;SDS011;11200;51.488;6.668;2024-03-25T01:07:03;9.30;;;3.85;;
22070;SDS011;11200;51.488;6.668;2024-03-25T01:09:28;9.25;;;3.95;;
22070;SDS011;11200;51.488;6.668;2024-03-25T01:11:55;9.73;;;3.88;;
22070;SDS011;11200;51.488;6.668;2024-03-25T01:14:21;7.78;;;3.33;;
22070;SDS011;11200;51.488;6.668;2024-03-25T01:16:47;6.18;;;3.05;;
22070;SDS011;11200;51.488;6.668;2024-03-25T01:19:12;8.30;;;3.72;;
22070;SDS011;11200;51.488;6.668;2024-03-25T01:21:39;7.43;;;3.10;;
22070;SDS011;11200;51.488;6.668;2024-03-25T01:24:04;10.30;;;3.63;;
22070;SDS011;11200;51.488;6.668;2024-03-25T01:26:30;5.88;;;3.00;;
22070;SDS011;11200;51.488;6.668;2024-03-25T01:28:56;8.05;;;3.13;;
22070;SDS011;11200;51.488;6.668;2024-03-25T01:31:22;6.47;;;3.13;;
22070;SDS011;11200;51.488;6.668;2024-03-25T01:33:48;6.85;;;3.13;;
22070;SDS011;11200;51.488;6.668;2024-03-25T01:36:14;9.25;;;3.50;;
22070;SDS011;11200;51.488;6.668;2024-03-25T01:38:42;6.15;;;3.03;;
22070;SDS011;11200;51.488;6.668;2024-03-25T01:41:12;8.10;;;3.20;;
22070;SDS011;11200;51.488;6.668;2024-03-25T01:43:40;8.07;;;2.90;;
22070;SDS011;11200;51.488;6.668;2024-03-25T01:46:06;8.80;;;3.63;;
22070;SDS011;11200;51.488;6.668;2024-03-25T01:48:33;6.97;;;3.15;;
22070;SDS011;11200;51.488;6.668;2024-03-25T01:50:59;5.90;;;3.20;;
22070;SDS011;11200;51.488;6.668;2024-03-25T01:53:25;6.45;;;3.17;;
22070;SDS011;11200;51.488;6.668;2024-03-25T01:55:53;7.60;;;3.30;;
22070;SDS011;11200;51.488;6.668;2024-03-25T01:58:21;6.35;;;2.85;;
22070;SDS011;11200;51.488;6.668;2024-03-25T02:00:48;6.50;;;3.00;;
22070;SDS011;11200;51.488;6.668;2024-03-25T02:03:14;9.05;;;3.20;;
22070;SDS011;11200;51.488;6.668;2024-03-25T02:05:41;9.13;;;3.35;;
22070;SDS011;11200;51.488;6.668;2024-03-25T02:08:07;5.97;;;2.80;;
22070;SDS011;11200;51.488;6.668;2024-03-25T02:10:33;7.65;;;3.10;;
22070;SDS011;11200;51.488;6.668;2024-03-25T02:12:59;8.40;;;2.95;;
22070;SDS011;11200;51.488;6.668;2024-03-25T02:15:25;5.45;;;2.65;;
22070;SDS011;11200;51.488;6.668;2024-03-25T02:17:54;6.25;;;2.60;;
22070;SDS011;11200;51.488;6.668;2024-03-25T02:20:20;9.18;;;2.85;;
22070;SDS011;11200;51.488;6.668;2024-03-25T02:22:46;8.43;;;2.75;;
22070;SDS011;11200;51.488;6.668;2024-03-25T02:25:12;6.45;;;2.85;;
22070;SDS011;11200;51.488;6.668;2024-03-25T02:27:39;7.18;;;2.95;;
22070;SDS011;11200;51.488;6.668;2024-03-25T02:30:06;7.18;;;2.70;;
22070;SDS011;11200;51.488;6.668;2024-03-25T02:32:33;9.18;;;3.13;;
22070;SDS011;11200;51.488;6.668;2024-03-25T02:34:59;6.40;;;3.00;;
22070;SDS011;11200;51.488;6.668;2024-03-25T02:37:26;7.28;;;2.90;;
22070;SDS011;11200;51.488;6.668;2024-03-25T02:39:53;9.18;;;2.78;;
22070;SDS011;11200;51.488;6.668;2024-03-25T02:42:21;6.07;;;2.50;;
22070;SDS011;11200;51.488;6.668;2024-03-25T02:44:47;7.10;;;2.92;;
22070;SDS011;11200;51.488;6.668;2024-03-25T02:47:13;8.90;;;2.72;;
22070;SDS011;11200;51.488;6.668;2024-03-25T02:49:39;6.45;;;2.90;;
22070;SDS011;11200;51.488;6.668;2024-03-25T02:52:08;5.45;;;2.38;;
22070;SDS011;11200;51.488;6.668;2024-03-25T02:54:34;6.43;;;3.05;;
22070;SDS011;11200;51.488;6.668;2024-03-25T02:57:00;6.93;;;2.70;;
22070;SDS011;11200;51.488;6.668;2024-03-25T02:59:26;6.00;;;2.95;;
22070;SDS011;11200;51.488;6.668;2024-03-25T03:01:52;6.93;;;2.67;;
22070;SDS011;11200;51.488;6.668;2024-03-25T03:04:18;4.63;;;2.38;;
22070;SDS011;11200;51.488;6.668;2024-03-25T03:06:43;6.32;;;2.80;;
22070;SDS011;11200;51.488;6.668;2024-03-25T03:09:09;10.13;;;2.75;;
22070;SDS011;11200;51.488;6.668;2024-03-25T03:11:35;6.82;;;2.58;;
22070;SDS011;11200;51.488;6.668;2024-03-25T03:14:01;6.55;;;2.67;;
22070;SDS011;11200;51.488;6.668;2024-03-25T03:16:27;7.32;;;2.70;;
22070;SDS011;11200;51.488;6.668;2024-03-25T03:18:54;8.50;;;3.20;;
22070;SDS011;11200;51.488;6.668;2024-03-25T03:21:20;6.97;;;3.03;;
22070;SDS011;11200;51.488;6.668;2024-03-25T03:23:46;8.82;;;3.10;;
22070;SDS011;11200;51.488;6.668;2024-03-25T03:26:12;9.13;;;2.90;;
22070;SDS011;11200;51.488;6.668;2024-03-25T03:28:39;8.27;;;2.70;;
22070;SDS011;11200;51.488;6.668;2024-03-25T03:31:05;7.78;;;2.85;;
22070;SDS011;11200;51.488;6.668;2024-03-25T03:33:31;10.13;;;2.92;;
22070;SDS011;11200;51.488;6.668;2024-03-25T03:35:57;9.15;;;3.33;;
22070;SDS011;11200;51.488;6.668;2024-03-25T03:38:23;7.55;;;3.17;;
22070;SDS011;11200;51.488;6.668;2024-03-25T03:40:55;7.75;;;3.03;;
22070;SDS011;11200;51.488;6.668;2024-03-25T03:43:21;7.82;;;2.78;;
22070;SDS011;11200;51.488;6.668;2024-03-25T03:45:47;5.80;;;2.75;;
22070;SDS011;11200;51.488;6.668;2024-03-25T03:48:13;6.38;;;2.72;;
22070;SDS011;11200;51.488;6.668;2024-03-25T03:50:39;7.25;;;3.03;;
22070;SDS011;11200;51.488;6.668;2024-03-25T03:53:05;6.50;;;2.55;;
22070;SDS011;11200;51.488;6.668;2024-03-25T03:55:31;6.40;;;2.90;;
22070;SDS011;11200;51.488;6.668;2024-03-25T03:57:57;9.25;;;2.97;;
22070;SDS011;11200;51.488;6.668;2024-03-25T04:00:23;6.30;;;2.95;;
22070;SDS011;11200;51.488;6.668;2024-03-25T04:02:49;6.45;;;2.78;;
22070;SDS011;11200;51.488;6.668;2024-03-25T04:05:15;6.93;;;2.70;;
22070;SDS011;11200;51.488;6.668;2024-03-25T04:07:41;6.55;;;2.88;;
22070;SDS011;11200;51.488;6.668;2024-03-25T04:10:08;6.63;;;3.00;;
22070;SDS011;11200;51.488;6.668;2024-03-25T04:12:34;6.07;;;2.80;;
22070;SDS011;11200;51.488;6.668;2024-03-25T04:15:01;8.82;;;3.20;;
22070;SDS011;11200;51.488;6.668;2024-03-25T04:17:27;7.15;;;2.63;;
22070;SDS011;11200;51.488;6.668;2024-03-25T04:19:53;9.10;;;2.80;;
22070;SDS011;11200;51.488;6.668;2024-03-25T04:22:19;7.93;;;2.65;;
22070;SDS011;11200;51.488;6.668;2024-03-25T04:24:45;6.10;;;2.60;;
22070;SDS011;11200;51.488;6.668;2024-03-25T04:27:11;6.00;;;2.90;;
22070;SDS011;11200;51.488;6.668;2024-03-25T04:29:37;6.07;;;2.60;;
22070;SDS011;11200;51.488;6.668;2024-03-25T04:32:03;4.82;;;2.40;;
22070;SDS011;11200;51.488;6.668;2024-03-25T04:34:29;7.30;;;2.50;;
22070;SDS011;11200;51.488;6.668;2024-03-25T04:36:56;5.78;;;2.72;;
22070;SDS011;11200;51.488;6.668;2024-03-25T04:39:22;4.68;;;2.53;;
22070;SDS011;11200;51.488;6.668;2024-03-25T04:41:48;6.65;;;2.17;;
22070;SDS011;11200;51.488;6.668;2024-03-25T04:44:14;5.70;;;2.60;;
22070;SDS011;11200;51.488;6.668;2024-03-25T04:46:40;5.47;;;2.47;;
22070;SDS011;11200;51.488;6.668;2024-03-25T04:49:06;6.47;;;2.65;;
22070;SDS011;11200;51.488;6.668;2024-03-25T04:51:31;7.13;;;2.63;;
22070;SDS011;11200;51.488;6.668;2024-03-25T04:53:58;5.22;;;2.33;;
22070;SDS011;11200;51.488;6.668;2024-03-25T04:56:24;6.57;;;2.60;;
22070;SDS011;11200;51.488;6.668;2024-03-25T04:58:49;5.97;;;2.55;;
22070;SDS011;11200;51.488;6.668;2024-03-25T05:01:15;6.53;;;2.75;;
22070;SDS011;11200;51.488;6.668;2024-03-25T05:03:42;7.45;;;2.95;;
22070;SDS011;11200;51.488;6.668;2024-03-25T05:06:08;7.95;;;2.80;;
22070;SDS011;11200;51.488;6.668;2024-03-25T05:08:36;6.07;;;2.60;;
22070;SDS011;11200;51.488;6.668;2024-03-25T05:11:02;5.05;;;2.70;;
22070;SDS011;11200;51.488;6.668;2024-03-25T05:13:28;6.05;;;2.70;;
22070;SDS011;11200;51.488;6.668;2024-03-25T05:15:57;6.13;;;2.67;;
22070;SDS011;11200;51.488;6.668;2024-03-25T05:18:23;7.28;;;3.00;;
22070;SDS011;11200;51.488;6.668;2024-03-25T05:20:49;5.97;;;2.60;;
22070;SDS011;11200;51.488;6.668;2024-03-25T05:23:15;5.30;;;2.70;;
22070;SDS011;11200;51.488;6.668;2024-03-25T05:25:41;6.47;;;2.63;;
22070;SDS011;11200;51.488;6.668;2024-03-25T05:28:07;4.28;;;2.65;;
22070;SDS011;11200;51.488;6.668;2024-03-25T05:30:33;5.72;;;2.47;;
22070;SDS011;11200;51.488;6.668;2024-03-25T05:33:07;5.50;;;2.67;;
22070;SDS011;11200;51.488;6.668;2024-03-25T05:35:33;7.78;;;2.65;;
22070;SDS011;11200;51.488;6.668;2024-03-25T05:38:01;6.57;;;2.08;;
22070;SDS011;11200;51.488;6.668;2024-03-25T05:40:31;6.28;;;2.38;;
22070;SDS011;11200;51.488;6.668;2024-03-25T05:42:57;5.03;;;2.38;;
22070;SDS011;11200;51.488;6.668;2024-03-25T05:45:22;6.30;;;2.40;;
22070;SDS011;11200;51.488;6.668;2024-03-25T05:47:51;5.15;;;2.40;;
22070;SDS011;11200;51.488;6.668;2024-03-25T05:50:18;6.07;;;2.30;;
22070;SDS011;11200;51.488;6.668;2024-03-25T05:52:44;4.80;;;2.30;;
22070;SDS011;11200;51.488;6.668;2024-03-25T05:55:10;3.78;;;2.10;;
22070;SDS011;11200;51.488;6.668;2024-03-25T05:57:36;6.50;;;2.50;;
22070;SDS011;11200;51.488;6.668;2024-03-25T06:00:02;6.82;;;2.50;;
22070;SDS011;11200;51.488;6.668;2024-03-25T06:02:29;6.63;;;3.00;;
22070;SDS011;11200;51.488;6.668;2024-03-25T06:04:58;6.55;;;2.97;;
22070;SDS011;11200;51.488;6.668;2024-03-25T06:07:24;6.43;;;2.80;;
22070;SDS011;11200;51.488;6.668;2024-03-25T06:09:49;5.70;;;2.88;;
22070;SDS011;11200;51.488;6.668;2024-03-25T06:12:15;5.50;;;2.53;;
22070;SDS011;11200;51.488;6.668;2024-03-25T06:14:41;8.15;;;2.92;;
22070;SDS011;11200;51.488;6.668;2024-03-25T06:17:08;7.05;;;3.10;;
22070;SDS011;11200;51.488;6.668;2024-03-25T06:19:34;7.70;;;2.60;;
22070;SDS011;11200;51.488;6.668;2024-03-25T06:22:00;5.07;;;2.60;;
22070;SDS011;11200;51.488;6.668;2024-03-25T06:24:26;6.65;;;3.17;;
22070;SDS011;11200;51.488;6.668;2024-03-25T06:26:52;7.13;;;2.78;;
22070;SDS011;11200;51.488;6.668;2024-03-25T06:29:18;8.13;;;3.20;;
22070;SDS011;11200;51.488;6.668;2024-03-25T06:31:44;6.57;;;3.00;;
22070;SDS011;11200;51.488;6.668;2024-03-25T06:34:29;5.68;;;3.00;;
22070;SDS011;11200;51.488;6.668;2024-03-25T06:36:55;7.18;;;3.00;;
22070;SDS011;11200;51.488;6.668;2024-03-25T06:39:21;10.60;;;3.65;;
22070;SDS011;11200;51.488;6.668;2024-03-25T06:41:46;7.50;;;3.10;;
22070;SDS011;11200;51.488;6.668;2024-03-25T06:44:12;4.53;;;2.60;;
22070;SDS011;11200;51.488;6.668;2024-03-25T06:46:38;4.82;;;2.63;;
22070;SDS011;11200;51.488;6.668;2024-03-25T06:49:04;5.78;;;3.08;;
22070;SDS011;11200;51.488;6.668;2024-03-25T06:51:30;9.27;;;3.38;;
22070;SDS011;11200;51.488;6.668;2024-03-25T06:53:56;8.20;;;3.10;;
22070;SDS011;11200;51.488;6.668;2024-03-25T06:56:22;6.70;;;3.47;;
22070;SDS011;11200;51.488;6.668;2024-03-25T06:58:48;5.85;;;3.08;;
22070;SDS011;11200;51.488;6.668;2024-03-25T07:01:14;6.68;;;3.17;;
22070;SDS011;11200;51.488;6.668;2024-03-25T07:03:40;6.43;;;3.10;;
22070;SDS011;11200;51.488;6.668;2024-03-25T07:06:06;6.40;;;3.30;;
22070;SDS011;11200;51.488;6.668;2024-03-25T07:08:32;5.90;;;3.20;;
22070;SDS011;11200;51.488;6.668;2024-03-25T07:10:58;6.25;;;3.10;;
22070;SDS011;11200;51.488;6.668;2024-03-25T07:13:24;7.50;;;3.42;;
22070;SDS011;11200;51.488;6.668;2024-03-25T07:15:50;8.85;;;3.45;;
22070;SDS011;11200;51.488;6.668;2024-03-25T07:18:16;6.15;;;3.15;;
22070;SDS011;11200;51.488;6.668;2024-03-25T07:20:43;6.22;;;3.45;;
22070;SDS011;11200;51.488;6.668;2024-03-25T07:23:09;7.72;;;3.70;;
22070;SDS011;11200;51.488;6.668;2024-03-25T07:25:35;10.85;;;3.90;;
22070;SDS011;11200;51.488;6.668;2024-03-25T07:28:02;7.53;;;3.28;;
22070;SDS011;11200;51.488;6.668;2024-03-25T07:30:28;6.38;;;3.60;;
22070;SDS011;11200;51.488;6.668;2024-03-25T07:32:54;6.50;;;3.20;;
22070;SDS011;11200;51.488;6.668;2024-03-25T07:35:20;5.63;;;3.13;;
22070;SDS011;11200;51.488;6.668;2024-03-25T07:37:46;7.93;;;3.28;;
22070;SDS011;11200;51.488;6.668;2024-03-25T07:40:16;7.63;;;3.40;;
22070;SDS011;11200;51.488;6.668;2024-03-25T07:42:42;8.27;;;3.78;;
22070;SDS011;11200;51.488;6.668;2024-03-25T07:45:08;5.75;;;3.03;;
22070;SDS011;11200;51.488;6.668;2024-03-25T07:47:34;8.00;;;3.22;;
22070;SDS011;11200;51.488;6.668;2024-03-25T07:50:00;6.00;;;3.03;;
22070;SDS011;11200;51.488;6.668;2024-03-25T07:52:26;6.00;;;3.33;;
22070;SDS011;11200;51.488;6.668;2024-03-25T07:54:53;7.70;;;3.53;;
22070;SDS011;11200;51.488;6.668;2024-03-25T07:57:19;10.07;;;3.60;;
22070;SDS011;11200;51.488;6.668;2024-03-25T07:59:45;7.88;;;3.10;;
22070;SDS011;11200;51.488;6.668;2024-03-25T08:02:11;7.45;;;3.70;;
22070;SDS011;11200;51.488;6.668;2024-03-25T08:04:37;7.72;;;3.38;;
22070;SDS011;11200;51.488;6.668;2024-03-25T08:07:03;6.45;;;3.40;;
22070;SDS011;11200;51.488;6.668;2024-03-25T08:09:29;6.35;;;3.40;;
22070;SDS011;11200;51.488;6.668;2024-03-25T08:11:55;7.57;;;3.42;;
22070;SDS011;11200;51.488;6.668;2024-03-25T08:14:21;8.13;;;3.20;;
22070;SDS011;11200;51.488;6.668;2024-03-25T08:16:48;7.32;;;3.72;;
22070;SDS011;11200;51.488;6.668;2024-03-25T08:19:14;8.70;;;3.47;;
22070;SDS011;11200;51.488;6.668;2024-03-25T08:21:40;8.57;;;3.58;;
22070;SDS011;11200;51.488;6.668;2024-03-25T08:24:06;8.00;;;3.85;;
22070;SDS011;11200;51.488;6.668;2024-03-25T08:26:32;8.80;;;3.67;;
22070;SDS011;11200;51.488;6.668;2024-03-25T08:28:58;8.32;;;3.20;;
22070;SDS011;11200;51.488;6.668;2024-03-25T08:31:24;8.02;;;3.38;;
22070;SDS011;11200;51.488;6.668;2024-03-25T08:33:50;8.23;;;3.25;;
22070;SDS011;11200;51.488;6.668;2024-03-25T08:36:17;6.90;;;2.90;;
22070;SDS011;11200;51.488;6.668;2024-03-25T08:38:43;7.03;;;3.17;;
22070;SDS011;11200;51.488;6.668;2024-03-25T08:41:09;7.72;;;3.13;;
22070;SDS011;11200;51.488;6.668;2024-03-25T08:43:35;8.13;;;2.97;;
22070;SDS011;11200;51.488;6.668;2024-03-25T08:46:01;8.45;;;3.17;;
22070;SDS011;11200;51.488;6.668;2024-03-25T08:48:28;6.80;;;2.70;;
22070;SDS011;11200;51.488;6.668;2024-03-25T08:50:54;8.88;;;2.80;;
22070;SDS011;11200;51.488;6.668;2024-03-25T08:53:20;6.22;;;2.92;;
22070;SDS011;11200;51.488;6.668;2024-03-25T08:55:46;7.97;;;2.72;;
22070;SDS011;11200;51.488;6.668;2024-03-25T08:58:13;6.25;;;2.70;;
22070;SDS011;11200;51.488;6.668;2024-03-25T09:00:39;5.80;;;2.70;;
22070;SDS011;11200;51.488;6.668;2024-03-25T09:03:05;7.40;;;2.85;;
22070;SDS011;11200;51.488;6.668;2024-03-25T09:05:31;5.55;;;2.60;;
22070;SDS011;11200;51.488;6.668;2024-03-25T09:07:59;6.43;;;2.35;;
22070;SDS011;11200;51.488;6.668;2024-03-25T09:10:25;7.22;;;2.58;;
22070;SDS011;11200;51.488;6.668;2024-03-25T09:13:09;6.22;;;2.53;;
22070;SDS011;11200;51.488;6.668;2024-03-25T09:15:36;6.93;;;2.38;;
22070;SDS011;11200;51.488;6.668;2024-03-25T09:18:02;5.63;;;2.50;;
22070;SDS011;11200;51.488;6.668;2024-03-25T09:20:28;7.10;;;2.75;;
22070;SDS011;11200;51.488;6.668;2024-03-25T09:22:54;6.32;;;2.50;;
22070;SDS011;11200;51.488;6.668;2024-03-25T09:25:20;6.25;;;2.80;;
22070;SDS011;11200;51.488;6.668;2024-03-25T09:27:47;5.47;;;2.25;;
22070;SDS011;11200;51.488;6.668;2024-03-25T09:30:13;5.68;;;2.33;;
22070;SDS011;11200;51.488;6.668;2024-03-25T09:32:39;5.65;;;2.35;;
22070;SDS011;11200;51.488;6.668;2024-03-25T09:35:06;5.65;;;2.50;;
22070;SDS011;11200;51.488;6.668;2024-03-25T09:37:32;7.93;;;2.33;;
22070;SDS011;11200;51.488;6.668;2024-03-25T09:39:58;7.53;;;2.58;;
22070;SDS011;11200;51.488;6.668;2024-03-25T09:42:28;5.88;;;2.10;;
22070;SDS011;11200;51.488;6.668;2024-03-25T09:44:57;7.25;;;2.33;;
22070;SDS011;11200;51.488;6.668;2024-03-25T09:47:23;6.13;;;2.47;;
22070;SDS011;11200;51.488;6.668;2024-03-25T09:49:49;5.72;;;2.20;;
22070;SDS011;11200;51.488;6.668;2024-03-25T09:52:16;5.80;;;2.00;;
22070;SDS011;11200;51.488;6.668;2024-03-25T09:54:42;7.70;;;2.47;;
22070;SDS011;11200;51.488;6.668;2024-03-25T09:57:08;6.25;;;2.42;;
22070;SDS011;11200;51.488;6.668;2024-03-25T09:59:35;7.75;;;2.72;;
22070;SDS011;11200;51.488;6.668;2024-03-25T10:02:01;7.00;;;2.65;;
22070;SDS011;11200;51.488;6.668;2024-03-25T10:04:28;8.05;;;2.63;;
22070;SDS011;11200;51.488;6.668;2024-03-25T10:06:54;7.28;;;2.60;;
22070;SDS011;11200;51.488;6.668;2024-03-25T10:09:20;7.40;;;2.05;;
22070;SDS011;11200;51.488;6.668;2024-03-25T10:11:47;6.72;;;2.20;;
22070;SDS011;11200;51.488;6.668;2024-03-25T10:14:14;5.15;;;2.10;;
22070;SDS011;11200;51.488;6.668;2024-03-25T10:16:40;6.10;;;2.33;;
22070;SDS011;11200;51.488;6.668;2024-03-25T10:19:06;5.28;;;2.17;;
22070;SDS011;11200;51.488;6.668;2024-03-25T10:21:32;6.55;;;1.90;;
22070;SDS011;11200;51.488;6.668;2024-03-25T10:23:59;6.28;;;2.05;;
22070;SDS011;11200;51.488;6.668;2024-03-25T10:26:25;5.43;;;2.22;;
22070;SDS011;11200;51.488;6.668;2024-03-25T10:29:01;4.85;;;2.13;;
22070;SDS011;11200;51.488;6.668;2024-03-25T10:31:28;6.85;;;2.40;;
22070;SDS011;11200;51.488;6.668;2024-03-25T10:33:54;6.93;;;2.10;;
22070;SDS011;11200;51.488;6.668;2024-03-25T10:36:21;6.38;;;1.98;;
22070;SDS011;11200;51.488;6.668;2024-03-25T10:38:49;4.65;;;1.85;;
22070;SDS011;11200;51.488;6.668;2024-03-25T10:41:18;4.35;;;1.95;;
22070;SDS011;11200;51.488;6.668;2024-03-25T10:43:45;4.28;;;1.83;;
22070;SDS011;11200;51.488;6.668;2024-03-25T10:46:13;5.78;;;2.00;;
22070;SDS011;11200;51.488;6.668;2024-03-25T10:48:41;5.45;;;2.17;;
22070;SDS011;11200;51.488;6.668;2024-03-25T10:51:09;3.72;;;1.90;;
22070;SDS011;11200;51.488;6.668;2024-03-25T10:53:38;3.60;;;2.08;;
22070;SDS011;11200;51.488;6.668;2024-03-25T10:56:04;4.82;;;1.75;;
22070;SDS011;11200;51.488;6.668;2024-03-25T10:58:31;4.95;;;1.80;;
22070;SDS011;11200;51.488;6.668;2024-03-25T11:00:57;5.10;;;1.92;;
22070;SDS011;11200;51.488;6.668;2024-03-25T11:03:24;6.35;;;2.47;;
22070;SDS011;11200;51.488;6.668;2024-03-25T11:05:50;4.70;;;1.90;;
22070;SDS011;11200;51.488;6.668;2024-03-25T11:08:17;4.95;;;2.00;;
22070;SDS011;11200;51.488;6.668;2024-03-25T11:10:43;5.05;;;2.28;;
22070;SDS011;11200;51.488;6.668;2024-03-25T11:13:10;5.55;;;2.28;;
22070;SDS011;11200;51.488;6.668;2024-03-25T11:15:37;7.28;;;2.20;;
22070;SDS011;11200;51.488;6.668;2024-03-25T11:18:03;4.18;;;1.85;;
22070;SDS011;11200;51.488;6.668;2024-03-25T11:20:30;6.82;;;2.67;;
22070;SDS011;11200;51.488;6.668;2024-03-25T11:22:56;9.25;;;2.30;;
22070;SDS011;11200;51.488;6.668;2024-03-25T11:25:22;5.47;;;2.30;;
22070;SDS011;11200;51.488;6.668;2024-03-25T11:27:48;6.07;;;2.40;;
22070;SDS011;11200;51.488;6.668;2024-03-25T11:30:15;4.93;;;2.17;;
22070;SDS011;11200;51.488;6.668;2024-03-25T11:32:51;4.20;;;2.20;;
22070;SDS011;11200;51.488;6.668;2024-03-25T11:35:17;4.43;;;1.95;;
22070;SDS011;11200;51.488;6.668;2024-03-25T11:37:43;4.47;;;2.05;;
22070;SDS011;11200;51.488;6.668;2024-03-25T11:40:10;5.10;;;2.30;;
22070;SDS011;11200;51.488;6.668;2024-03-25T11:42:41;5.88;;;2.15;;
22070;SDS011;11200;51.488;6.668;2024-03-25T11:45:17;4.22;;;2.25;;
22070;SDS011;11200;51.488;6.668;2024-03-25T11:47:44;5.90;;;2.30;;
22070;SDS011;11200;51.488;6.668;2024-03-25T11:50:14;4.97;;;2.15;;
22070;SDS011;11200;51.488;6.668;2024-03-25T11:52:40;4.70;;;2.38;;
22070;SDS011;11200;51.488;6.668;2024-03-25T11:55:06;5.03;;;2.55;;
22070;SDS011;11200;51.488;6.668;2024-03-25T11:57:39;3.45;;;2.17;;
22070;SDS011;11200;51.488;6.668;2024-03-25T12:00:07;7.40;;;2.90;;
22070;SDS011;11200;51.488;6.668;2024-03-25T12:02:37;5.60;;;2.10;;
22070;SDS011;11200;51.488;6.668;2024-03-25T12:05:05;5.28;;;2.35;;
22070;SDS011;11200;51.488;6.668;2024-03-25T12:07:32;5.05;;;2.47;;
22070;SDS011;11200;51.488;6.668;2024-03-25T12:10:00;4.07;;;2.30;;
22070;SDS011;11200;51.488;6.668;2024-03-25T12:12:45;5.13;;;2.20;;
22070;SDS011;11200;51.488;6.668;2024-03-25T12:15:11;4.57;;;2.47;;
22070;SDS011;11200;51.488;6.668;2024-03-25T12:17:37;4.70;;;2.67;;
22070;SDS011;11200;51.488;6.668;2024-03-25T12:20:04;5.43;;;2.55;;
22070;SDS011;11200;51.488;6.668;2024-03-25T12:22:31;4.78;;;2.58;;
22070;SDS011;11200;51.488;6.668;2024-03-25T12:25:01;5.43;;;2.53;;
22070;SDS011;11200;51.488;6.668;2024-03-25T12:27:37;4.97;;;2.90;;
22070;SDS011;11200;51.488;6.668;2024-03-25T12:30:06;5.68;;;2.67;;
22070;SDS011;11200;51.488;6.668;2024-03-25T12:32:43;6.03;;;2.90;;
22070;SDS011;11200;51.488;6.668;2024-03-25T12:35:10;7.28;;;2.80;;
22070;SDS011;11200;51.488;6.668;2024-03-25T12:37:39;5.53;;;3.00;;
22070;SDS011;11200;51.488;6.668;2024-03-25T12:40:06;5.95;;;3.00;;
22070;SDS011;11200;51.488;6.668;2024-03-25T12:42:33;7.18;;;2.95;;
22070;SDS011;11200;51.488;6.668;2024-03-25T12:44:59;5.43;;;3.10;;
22070;SDS011;11200;51.488;6.668;2024-03-25T12:47:25;5.15;;;2.67;;
22070;SDS011;11200;51.488;6.668;2024-03-25T12:49:51;5.72;;;2.47;;
22070;SDS011;11200;51.488;6.668;2024-03-25T12:52:18;7.28;;;3.08;;
22070;SDS011;11200;51.488;6.668;2024-03-25T12:54:44;5.90;;;2.97;;
22070;SDS011;11200;51.488;6.668;2024-03-25T12:57:11;4.95;;;2.83;;
22070;SDS011;11200;51.488;6.668;2024-03-25T12:59:37;5.22;;;2.80;;
22070;SDS011;11200;51.488;6.668;2024-03-25T13:02:03;6.03;;;3.13;;
22070;SDS011;11200;51.488;6.668;2024-03-25T13:04:29;4.22;;;2.80;;
22070;SDS011;11200;51.488;6.668;2024-03-25T13:06:55;7.13;;;2.65;;
22070;SDS011;11200;51.488;6.668;2024-03-25T13:09:21;5.45;;;3.30;;
22070;SDS011;11200;51.488;6.668;2024-03-25T13:11:47;8.43;;;3.30;;
22070;SDS011;11200;51.488;6.668;2024-03-25T13:14:13;5.63;;;3.05;;
22070;SDS011;11200;51.488;6.668;2024-03-25T13:16:41;6.22;;;3.20;;
22070;SDS011;11200;51.488;6.668;2024-03-25T13:19:07;4.82;;;2.90;;
22070;SDS011;11200;51.488;6.668;2024-03-25T13:21:33;7.00;;;3.38;;
22070;SDS011;11200;51.488;6.668;2024-03-25T13:23:59;4.60;;;3.03;;
22070;SDS011;11200;51.488;6.668;2024-03-25T13:26:25;5.10;;;3.13;;
22070;SDS011;11200;51.488;6.668;2024-03-25T13:28:51;6.93;;;3.15;;
22070;SDS011;11200;51.488;6.668;2024-03-25T13:31:17;6.82;;;3.58;;
22070;SDS011;11200;51.488;6.668;2024-03-25T13:33:43;5.07;;;3.22;;
22070;SDS011;11200;51.488;6.668;2024-03-25T13:36:09;6.07;;;3.50;;
22070;SDS011;11200;51.488;6.668;2024-03-25T13:38:36;5.13;;;3.10;;
22070;SDS011;11200;51.488;6.668;2024-03-25T13:41:02;5.75;;;3.38;;
22070;SDS011;11200;51.488;6.668;2024-03-25T13:43:28;6.55;;;3.50;;
22070;SDS011;11200;51.488;6.668;2024-03-25T13:45:54;6.50;;;3.50;;
22070;SDS011;11200;51.488;6.668;2024-03-25T13:48:20;5.25;;;3.38;;
22070;SDS011;11200;51.488;6.668;2024-03-25T13:50:46;5.95;;;3.50;;
22070;SDS011;11200;51.488;6.668;2024-03-25T13:53:13;4.70;;;3.20;;
22070;SDS011;11200;51.488;6.668;2024-03-25T13:55:39;5.97;;;3.40;;
22070;SDS011;11200;51.488;6.668;2024-03-25T13:58:05;6.20;;;3.30;;
22070;SDS011;11200;51.488;6.668;2024-03-25T14:00:31;6.40;;;3.10;;
22070;SDS011;11200;51.488;6.668;2024-03-25T14:02:58;4.70;;;3.28;;
22070;SDS011;11200;51.488;6.668;2024-03-25T14:05:25;3.78;;;2.88;;
22070;SDS011;11200;51.488;6.668;2024-03-25T14:07:51;5.50;;;3.13;;
22070;SDS011;11200;51.488;6.668;2024-03-25T14:10:21;4.30;;;2.90;;
22070;SDS011;11200;51.488;6.668;2024-03-25T14:12:50;4.97;;;3.28;;
22070;SDS011;11200;51.488;6.668;2024-03-25T14:15:16;4.47;;;2.90;;
22070;SDS011;11200;51.488;6.668;2024-03-25T14:17:42;6.20;;;3.47;;
22070;SDS011;11200;51.488;6.668;2024-03-25T14:20:08;4.55;;;3.05;;
22070;SDS011;11200;51.488;6.668;2024-03-25T14:22:35;7.70;;;3.33;;
22070;SDS011;11200;51.488;6.668;2024-03-25T14:25:01;5.47;;;3.20;;
22070;SDS011;11200;51.488;6.668;2024-03-25T14:27:27;6.15;;;3.22;;
22070;SDS011;11200;51.488;6.668;2024-03-25T14:29:53;4.53;;;2.70;;
22070;SDS011;11200;51.488;6.668;2024-03-25T14:32:19;4.80;;;2.80;;
22070;SDS011;11200;51.488;6.668;2024-03-25T14:34:46;6.90;;;2.83;;
22070;SDS011;11200;51.488;6.668;2024-03-25T14:37:12;4.32;;;2.90;;
22070;SDS011;11200;51.488;6.668;2024-03-25T14:39:38;6.22;;;3.20;;
22070;SDS011;11200;51.488;6.668;2024-03-25T14:42:04;5.43;;;2.80;;
22070;SDS011;11200;51.488;6.668;2024-03-25T14:44:30;5.15;;;2.83;;